Time;durP1;ratioP1;P1;durP2;ratioP2;P2;SDS_P1;SDS_P2;PMS_P1;PMS_P2;Temp;Humidity;BMP_temperature;BMP_pressure;BME280_temperature;BME280_humidity;BME280_pressure;Samples;Min_cycle;Max_cycle;Signal;HPM_P1;HPM_P2
2023/03/13 00:00:18;;;;;;;19.37;11.30;;;;;;;;;;5088797;28;20191;-82
2023/03/13 00:02:47;;;;;;;21.50;11.67;;;;;;;;;;5087051;28;20184;-82
2023/03/13 00:05:13;;;;;;;17.10;11.93;;;;;;;;;;5088060;28;20176;-82
2023/03/13 00:07:39;;;;;;;21.23;13.40;;;;;;;;;;5087375;28;20225;-82
2023/03/13 00:10:06;;;;;;;22.63;12.77;;;;;;;;;;5082316;28;20298;-82
2023/03/13 00:12:32;;;;;;;16.30;10.50;;;;;;;;;;5079487;28;20195;-82
2023/03/13 00:14:58;;;;;;;16.80;11.10;;;;;;;;;;5092328;28;20212;-82
2023/03/13 00:17:24;;;;;;;20.50;12.33;;;;;;;;;;5107186;28;20179;-82
2023/03/13 00:19:50;;;;;;;17.37;11.00;;;;;;;;;;5097658;28;20236;-82
2023/03/13 00:22:16;;;;;;;18.87;10.37;;;;;;;;;;5103206;28;20189;-82
2023/03/13 00:24:42;;;;;;;19.27;10.33;;;;;;;;;;5087146;28;20211;-82
2023/03/13 00:27:08;;;;;;;16.60;9.70;;;;;;;;;;5090115;28;20759;-83
2023/03/13 00:29:34;;;;;;;19.17;12.53;;;;;;;;;;5106739;28;20649;-82
2023/03/13 00:32:00;;;;;;;29.40;16.67;;;;;;;;;;5093147;28;20235;-82
2023/03/13 00:34:27;;;;;;;14.30;9.63;;;;;;;;;;5084792;28;20191;-82
2023/03/13 00:36:56;;;;;;;12.37;8.13;;;;;;;;;;5089313;28;20172;-82
2023/03/13 00:39:22;;;;;;;11.77;7.20;;;;;;;;;;5087073;28;20176;-82
2023/03/13 00:41:48;;;;;;;13.07;8.00;;;;;;;;;;5086972;28;20657;-83
2023/03/13 00:44:14;;;;;;;14.40;9.07;;;;;;;;;;5110042;28;20183;-81
2023/03/13 00:46:40;;;;;;;14.03;9.13;;;;;;;;;;5074871;28;20184;-82
2023/03/13 00:49:06;;;;;;;11.07;7.07;;;;;;;;;;5086567;28;20254;-82
2023/03/13 00:51:32;;;;;;;11.43;7.77;;;;;;;;;;5103945;28;20199;-82
2023/03/13 00:53:59;;;;;;;11.63;7.77;;;;;;;;;;5089717;28;20191;-82
2023/03/13 00:56:26;;;;;;;9.53;7.47;;;;;;;;;;5088706;28;20187;-82
2023/03/13 00:58:52;;;;;;;11.63;8.67;;;;;;;;;;5077703;28;20177;-82
2023/03/13 01:01:23;;;;;;;12.23;9.30;;;;;;;;;;5105648;28;20792;-82
2023/03/13 01:03:59;;;;;;;15.70;11.17;;;;;;;;;;5087034;28;20270;-82
2023/03/13 01:06:26;;;;;;;9.50;7.07;;;;;;;;;;5078182;28;20266;-82
2023/03/13 01:08:53;;;;;;;10.10;7.80;;;;;;;;;;5087516;28;20295;-82
2023/03/13 01:11:20;;;;;;;12.37;8.33;;;;;;;;;;5089287;28;20219;-82
2023/03/13 01:13:47;;;;;;;11.57;7.60;;;;;;;;;;5078481;28;20208;-82
2023/03/13 01:16:14;;;;;;;10.90;8.10;;;;;;;;;;5093594;28;20241;-83
2023/03/13 01:18:41;;;;;;;9.93;7.80;;;;;;;;;;5081625;28;20572;-82
2023/03/13 01:21:07;;;;;;;12.10;6.83;;;;;;;;;;5105140;28;20237;-82
2023/03/13 01:23:34;;;;;;;11.60;7.33;;;;;;;;;;5100770;28;20186;-82
2023/03/13 01:26:00;;;;;;;11.57;7.53;;;;;;;;;;5091531;28;20628;-83
2023/03/13 01:28:26;;;;;;;12.37;9.07;;;;;;;;;;5084402;28;20199;-83
2023/03/13 01:30:52;;;;;;;10.83;7.83;;;;;;;;;;5082671;28;20219;-82
2023/03/13 01:33:18;;;;;;;11.37;8.07;;;;;;;;;;5088565;28;20184;-82
2023/03/13 01:35:45;;;;;;;15.40;10.87;;;;;;;;;;5074063;28;20176;-82
2023/03/13 01:38:11;;;;;;;11.50;8.03;;;;;;;;;;5090004;28;20181;-82
2023/03/13 01:40:44;;;;;;;14.03;8.13;;;;;;;;;;5107668;28;20652;-82
2023/03/13 01:43:24;;;;;;;13.53;9.60;;;;;;;;;;5089818;28;20187;-83
2023/03/13 01:46:08;;;;;;;12.23;8.33;;;;;;;;;;5089305;28;20233;-82
2023/03/13 01:48:59;;;;;;;11.70;8.00;;;;;;;;;;5094748;28;20184;-82
2023/03/13 01:51:25;;;;;;;14.13;9.13;;;;;;;;;;5104165;28;20215;-82
2023/03/13 01:54:02;;;;;;;14.47;9.73;;;;;;;;;;5087320;28;20223;-82
2023/03/13 01:56:31;;;;;;;16.40;10.03;;;;;;;;;;5085457;28;20169;-82
2023/03/13 01:58:58;;;;;;;15.73;10.10;;;;;;;;;;5084812;28;20244;-81
2023/03/13 02:01:24;;;;;;;16.97;10.80;;;;;;;;;;5104330;28;20279;-82
2023/03/13 02:03:50;;;;;;;15.17;9.73;;;;;;;;;;5084155;28;20184;-81
2023/03/13 02:06:17;;;;;;;14.00;10.30;;;;;;;;;;5100291;28;20187;-82
2023/03/13 02:08:54;;;;;;;18.03;10.60;;;;;;;;;;5107304;28;20199;-81
2023/03/13 02:11:27;;;;;;;14.67;10.97;;;;;;;;;;5088459;28;20218;-82
2023/03/13 02:16:56;;;;;;;20.60;14.00;;;;;;;;;;5105556;28;20232;-82
2023/03/13 02:19:28;;;;;;;17.00;11.47;;;;;;;;;;5089234;28;20306;-81
2023/03/13 02:22:01;;;;;;;17.10;12.03;;;;;;;;;;5091105;28;20272;-81
2023/03/13 02:24:36;;;;;;;16.00;10.40;;;;;;;;;;5088995;28;20180;-82
2023/03/13 02:27:03;;;;;;;17.27;10.80;;;;;;;;;;5109146;28;20265;-80
2023/03/13 02:29:29;;;;;;;16.60;10.30;;;;;;;;;;5112003;28;20191;-81
2023/03/13 02:31:55;;;;;;;18.63;12.30;;;;;;;;;;5085366;28;20252;-81
2023/03/13 02:34:23;;;;;;;16.20;10.83;;;;;;;;;;5089836;28;20270;-81
2023/03/13 02:36:49;;;;;;;16.30;11.40;;;;;;;;;;5092148;28;20188;-82
2023/03/13 02:39:16;;;;;;;17.83;11.10;;;;;;;;;;5077942;28;20187;-81
2023/03/13 02:41:43;;;;;;;20.93;11.37;;;;;;;;;;5084921;28;20187;-81
2023/03/13 02:44:10;;;;;;;17.37;10.60;;;;;;;;;;5086905;28;20194;-81
2023/03/13 02:46:51;;;;;;;21.47;12.77;;;;;;;;;;5109086;28;20177;-82
2023/03/13 02:49:21;;;;;;;19.33;13.17;;;;;;;;;;5107242;28;20664;-82
2023/03/13 02:51:47;;;;;;;17.23;12.17;;;;;;;;;;5092044;28;20621;-82
2023/03/13 02:54:24;;;;;;;18.80;10.67;;;;;;;;;;5090449;28;20302;-81
2023/03/13 02:56:52;;;;;;;19.30;13.07;;;;;;;;;;5085912;28;20460;-81
2023/03/13 02:59:18;;;;;;;23.13;15.63;;;;;;;;;;5110824;28;20180;-81
2023/03/13 03:01:44;;;;;;;17.30;12.23;;;;;;;;;;5092667;28;20641;-82
2023/03/13 03:04:10;;;;;;;17.30;12.87;;;;;;;;;;5098292;28;20231;-81
2023/03/13 03:06:37;;;;;;;16.00;11.20;;;;;;;;;;5076496;28;20192;-81
2023/03/13 03:09:03;;;;;;;18.17;10.83;;;;;;;;;;5107560;28;20213;-82
2023/03/13 03:11:29;;;;;;;18.83;13.20;;;;;;;;;;5109692;28;20207;-82
2023/03/13 03:13:55;;;;;;;19.60;12.60;;;;;;;;;;5107927;28;20179;-82
2023/03/13 03:16:22;;;;;;;18.13;11.00;;;;;;;;;;5106508;28;20188;-81
2023/03/13 03:18:47;;;;;;;21.17;12.00;;;;;;;;;;5088731;28;20211;-81
2023/03/13 03:21:14;;;;;;;16.97;11.13;;;;;;;;;;5101464;28;20183;-82
2023/03/13 03:23:40;;;;;;;18.07;12.67;;;;;;;;;;5088429;28;20519;-82
2023/03/13 03:26:06;;;;;;;16.17;12.10;;;;;;;;;;5089470;28;20557;-81
2023/03/13 03:28:32;;;;;;;16.43;11.40;;;;;;;;;;5106511;28;20180;-82
2023/03/13 03:31:03;;;;;;;21.63;13.10;;;;;;;;;;5080198;28;20203;-82
2023/03/13 03:33:29;;;;;;;21.20;11.67;;;;;;;;;;5075649;28;20261;-82
2023/03/13 03:35:59;;;;;;;19.33;11.87;;;;;;;;;;5086333;28;20173;-81
2023/03/13 03:38:25;;;;;;;14.57;10.80;;;;;;;;;;5092404;28;20244;-81
2023/03/13 03:40:51;;;;;;;16.03;10.57;;;;;;;;;;5107908;28;20527;-81
2023/03/13 03:43:17;;;;;;;17.23;11.37;;;;;;;;;;5106598;28;20187;-82
2023/03/13 03:45:43;;;;;;;15.63;11.40;;;;;;;;;;5090235;28;20583;-82
2023/03/13 03:48:10;;;;;;;16.30;10.63;;;;;;;;;;5108895;28;20651;-82
2023/03/13 03:50:36;;;;;;;16.87;10.97;;;;;;;;;;5087235;28;20677;-82
2023/03/13 03:53:02;;;;;;;15.70;10.97;;;;;;;;;;5089600;28;20421;-81
2023/03/13 03:55:28;;;;;;;15.83;10.83;;;;;;;;;;5085231;28;20182;-82
2023/03/13 03:57:54;;;;;;;17.67;11.33;;;;;;;;;;5087312;28;20274;-81
2023/03/13 04:00:20;;;;;;;16.60;10.83;;;;;;;;;;5103652;28;20671;-82
2023/03/13 04:02:47;;;;;;;19.33;13.40;;;;;;;;;;5109711;28;20179;-82
2023/03/13 04:05:13;;;;;;;20.03;11.80;;;;;;;;;;5107379;28;20180;-82
2023/03/13 04:07:39;;;;;;;16.57;11.13;;;;;;;;;;5084991;28;20202;-82
2023/03/13 04:10:05;;;;;;;20.20;11.23;;;;;;;;;;5104130;28;20270;-82
2023/03/13 04:12:31;;;;;;;21.67;11.33;;;;;;;;;;5090469;28;20187;-81
2023/03/13 04:14:57;;;;;;;16.40;11.07;;;;;;;;;;5086102;28;20180;-82
2023/03/13 04:17:23;;;;;;;18.87;11.13;;;;;;;;;;5092280;28;20634;-81
2023/03/13 04:19:49;;;;;;;20.00;12.27;;;;;;;;;;5086400;28;20221;-81
2023/03/13 04:22:15;;;;;;;18.23;11.97;;;;;;;;;;5090613;28;20192;-81
2023/03/13 04:24:41;;;;;;;16.53;11.80;;;;;;;;;;5085833;28;20183;-82
2023/03/13 04:27:08;;;;;;;16.50;11.73;;;;;;;;;;5087132;28;20176;-82
2023/03/13 04:29:34;;;;;;;16.43;11.43;;;;;;;;;;5107507;28;20229;-82
2023/03/13 04:32:01;;;;;;;23.30;13.23;;;;;;;;;;5085657;28;20213;-82
2023/03/13 04:34:27;;;;;;;16.97;13.73;;;;;;;;;;5099306;28;20229;-82
2023/03/13 04:36:54;;;;;;;17.00;11.87;;;;;;;;;;5108626;28;20188;-82
2023/03/13 04:39:24;;;;;;;19.83;12.93;;;;;;;;;;5087139;28;20275;-82
2023/03/13 04:41:51;;;;;;;17.27;12.73;;;;;;;;;;5108300;28;20195;-82
2023/03/13 04:44:17;;;;;;;19.37;12.67;;;;;;;;;;5087884;28;20184;-82
2023/03/13 04:46:43;;;;;;;18.33;13.07;;;;;;;;;;5105475;28;20180;-81
2023/03/13 04:49:09;;;;;;;20.20;13.03;;;;;;;;;;5085828;28;20700;-82
2023/03/13 04:51:35;;;;;;;18.47;12.80;;;;;;;;;;5078513;28;20301;-81
2023/03/13 04:54:02;;;;;;;16.13;12.37;;;;;;;;;;5074221;28;20185;-81
2023/03/13 04:56:28;;;;;;;17.93;12.67;;;;;;;;;;5085192;28;20203;-82
2023/03/13 04:58:54;;;;;;;22.50;13.60;;;;;;;;;;5085774;28;21024;-82
2023/03/13 05:01:20;;;;;;;17.33;13.60;;;;;;;;;;5077942;28;20184;-81
2023/03/13 05:03:46;;;;;;;17.97;13.40;;;;;;;;;;5089908;28;20176;-81
2023/03/13 05:06:13;;;;;;;19.57;12.83;;;;;;;;;;5104008;28;20179;-81
2023/03/13 05:08:40;;;;;;;23.87;12.43;;;;;;;;;;5087988;28;20278;-82
2023/03/13 05:11:06;;;;;;;24.57;14.47;;;;;;;;;;5104053;28;20290;-81
2023/03/13 05:13:32;;;;;;;19.43;13.23;;;;;;;;;;5086979;28;20257;-82
2023/03/13 05:15:58;;;;;;;19.97;13.23;;;;;;;;;;5076598;28;20266;-81
2023/03/13 05:18:24;;;;;;;17.63;13.17;;;;;;;;;;5084825;28;20653;-81
2023/03/13 05:20:50;;;;;;;16.73;13.63;;;;;;;;;;5086042;28;20211;-82
2023/03/13 05:23:16;;;;;;;18.00;13.10;;;;;;;;;;5079649;28;20249;-81
2023/03/13 05:25:42;;;;;;;17.07;12.80;;;;;;;;;;5086979;28;20203;-81
2023/03/13 05:28:10;;;;;;;17.63;12.93;;;;;;;;;;5099947;28;20648;-82
2023/03/13 05:30:37;;;;;;;20.07;13.53;;;;;;;;;;5081856;28;20218;-81
2023/03/13 05:33:03;;;;;;;16.93;13.60;;;;;;;;;;5092420;28;20172;-81
2023/03/13 05:35:29;;;;;;;23.73;15.97;;;;;;;;;;5093852;28;20212;-80
2023/03/13 05:37:56;;;;;;;19.83;14.07;;;;;;;;;;5074120;28;20214;-81
2023/03/13 05:40:22;;;;;;;18.70;13.63;;;;;;;;;;5098282;28;20184;-81
2023/03/13 05:42:48;;;;;;;20.07;14.63;;;;;;;;;;5099885;28;20191;-82
2023/03/13 05:45:14;;;;;;;17.63;14.00;;;;;;;;;;5084820;28;20558;-82
2023/03/13 05:47:41;;;;;;;20.53;15.23;;;;;;;;;;5086426;28;20267;-82
2023/03/13 05:50:07;;;;;;;18.97;14.30;;;;;;;;;;5104503;28;20184;-81
2023/03/13 05:52:33;;;;;;;19.80;15.27;;;;;;;;;;5088858;28;20552;-81
2023/03/13 05:54:59;;;;;;;18.40;14.80;;;;;;;;;;5088977;28;20219;-81
2023/03/13 05:57:25;;;;;;;19.00;14.73;;;;;;;;;;5092404;28;20277;-81
2023/03/13 05:59:51;;;;;;;22.73;16.47;;;;;;;;;;5090792;28;20585;-81
2023/03/13 06:02:19;;;;;;;23.83;16.30;;;;;;;;;;5086906;28;20638;-81
2023/03/13 06:04:45;;;;;;;21.60;16.43;;;;;;;;;;5088545;28;20192;-81
2023/03/13 06:07:11;;;;;;;23.60;16.83;;;;;;;;;;5089111;28;20241;-81
2023/03/13 06:09:39;;;;;;;25.20;18.23;;;;;;;;;;5089131;28;20266;-81
2023/03/13 06:12:06;;;;;;;23.70;17.20;;;;;;;;;;5083007;28;20215;-81
2023/03/13 06:14:32;;;;;;;26.73;18.27;;;;;;;;;;5087417;28;20195;-81
2023/03/13 06:16:58;;;;;;;26.53;17.90;;;;;;;;;;5086242;28;20605;-80
2023/03/13 06:19:24;;;;;;;27.80;18.57;;;;;;;;;;5098772;28;20767;-80
2023/03/13 06:21:50;;;;;;;30.07;18.63;;;;;;;;;;5083577;28;20641;-80
2023/03/13 06:24:17;;;;;;;24.67;18.30;;;;;;;;;;5087615;28;20253;-81
2023/03/13 06:26:43;;;;;;;24.90;18.93;;;;;;;;;;5104154;28;20717;-82
2023/03/13 06:29:10;;;;;;;21.93;16.83;;;;;;;;;;5098452;28;20649;-82
2023/03/13 06:31:36;;;;;;;23.97;17.80;;;;;;;;;;5084837;28;20253;-82
2023/03/13 06:34:02;;;;;;;26.00;17.40;;;;;;;;;;5100632;28;20649;-82
2023/03/13 06:36:28;;;;;;;22.57;17.40;;;;;;;;;;5085092;28;20172;-81
2023/03/13 06:38:54;;;;;;;26.23;17.00;;;;;;;;;;5086625;28;20199;-82
2023/03/13 06:41:20;;;;;;;23.70;16.33;;;;;;;;;;5077426;28;20629;-82
2023/03/13 06:43:46;;;;;;;21.27;14.90;;;;;;;;;;5084579;28;20657;-82
2023/03/13 06:46:17;;;;;;;19.67;15.90;;;;;;;;;;5096269;28;20221;-83
2023/03/13 06:48:45;;;;;;;19.73;15.63;;;;;;;;;;5080041;28;20176;-83
2023/03/13 06:51:11;;;;;;;22.63;15.63;;;;;;;;;;5082457;28;20207;-83
2023/03/13 06:53:38;;;;;;;20.40;15.57;;;;;;;;;;5100987;28;20188;-83
2023/03/13 06:56:05;;;;;;;20.70;15.23;;;;;;;;;;5082634;28;20196;-84
2023/03/13 06:58:31;;;;;;;23.13;15.03;;;;;;;;;;5088156;28;20179;-83
2023/03/13 07:00:57;;;;;;;19.60;14.27;;;;;;;;;;5081795;28;20188;-83
2023/03/13 07:03:23;;;;;;;20.57;14.37;;;;;;;;;;5103329;28;20183;-82
2023/03/13 07:05:54;;;;;;;20.10;14.03;;;;;;;;;;5081132;28;20196;-84
2023/03/13 07:08:20;;;;;;;20.00;13.80;;;;;;;;;;5080678;28;20195;-84
2023/03/13 07:10:49;;;;;;;19.10;13.10;;;;;;;;;;5085502;28;20211;-84
2023/03/13 07:13:18;;;;;;;20.67;13.70;;;;;;;;;;5082684;28;20259;-83
2023/03/13 07:15:45;;;;;;;17.90;12.33;;;;;;;;;;5086486;28;20254;-83
2023/03/13 07:18:11;;;;;;;13.53;12.13;;;;;;;;;;5071769;28;20730;-83
2023/03/13 07:20:37;;;;;;;17.73;12.93;;;;;;;;;;5049532;28;20276;-83
2023/03/13 07:23:03;;;;;;;16.77;11.77;;;;;;;;;;5049465;28;20273;-84
2023/03/13 07:25:29;;;;;;;16.93;11.70;;;;;;;;;;5045994;28;20185;-84
2023/03/13 07:27:55;;;;;;;14.17;11.43;;;;;;;;;;5051025;28;20536;-83
2023/03/13 07:30:21;;;;;;;19.60;12.37;;;;;;;;;;5056885;28;20212;-84
2023/03/13 07:32:48;;;;;;;15.37;11.73;;;;;;;;;;5054686;28;20224;-83
2023/03/13 07:35:14;;;;;;;15.70;11.87;;;;;;;;;;5053167;28;20193;-83
2023/03/13 07:37:40;;;;;;;16.40;11.63;;;;;;;;;;5050914;28;20493;-84
2023/03/13 07:40:08;;;;;;;15.67;11.93;;;;;;;;;;5058267;28;20229;-83
2023/03/13 07:42:34;;;;;;;18.07;10.97;;;;;;;;;;5058032;28;21154;-84
2023/03/13 07:45:00;;;;;;;15.83;11.13;;;;;;;;;;5054162;28;20254;-84
2023/03/13 07:47:26;;;;;;;14.17;10.67;;;;;;;;;;5056155;28;20630;-84
2023/03/13 07:49:52;;;;;;;17.00;11.13;;;;;;;;;;5053895;28;20362;-83
2023/03/13 07:52:18;;;;;;;13.10;10.17;;;;;;;;;;5054216;28;20212;-84
2023/03/13 07:54:44;;;;;;;12.57;10.23;;;;;;;;;;5057312;28;20693;-84
2023/03/13 07:57:10;;;;;;;17.23;10.90;;;;;;;;;;5063629;28;20598;-83
2023/03/13 07:59:36;;;;;;;16.53;10.13;;;;;;;;;;5054601;28;20200;-83
2023/03/13 08:02:03;;;;;;;13.57;10.00;;;;;;;;;;5049033;28;20199;-84
2023/03/13 08:04:29;;;;;;;16.63;10.13;;;;;;;;;;5053417;28;20585;-84
2023/03/13 08:06:55;;;;;;;15.80;9.53;;;;;;;;;;5057453;28;20181;-83
2023/03/13 08:09:21;;;;;;;15.87;10.13;;;;;;;;;;5053327;28;20197;-83
2023/03/13 08:11:47;;;;;;;11.67;9.60;;;;;;;;;;5049923;28;20209;-84
2023/03/13 08:14:14;;;;;;;13.23;10.07;;;;;;;;;;5050646;28;20193;-84
2023/03/13 08:16:40;;;;;;;13.93;9.80;;;;;;;;;;5046701;28;20289;-82
2023/03/13 08:19:06;;;;;;;12.90;10.03;;;;;;;;;;5093433;28;20223;-83
2023/03/13 08:21:36;;;;;;;13.70;9.80;;;;;;;;;;5087342;28;20229;-83
2023/03/13 08:24:05;;;;;;;12.67;9.23;;;;;;;;;;5087211;28;20271;-84
2023/03/13 08:26:32;;;;;;;13.47;9.00;;;;;;;;;;5106785;28;20179;-83
2023/03/13 08:28:59;;;;;;;13.17;8.97;;;;;;;;;;5103222;28;20202;-83
2023/03/13 08:31:26;;;;;;;17.03;9.80;;;;;;;;;;5084896;28;20207;-83
2023/03/13 08:33:53;;;;;;;13.80;9.73;;;;;;;;;;5087127;28;20191;-83
2023/03/13 08:36:24;;;;;;;15.47;9.60;;;;;;;;;;5086703;28;20180;-83
2023/03/13 08:38:52;;;;;;;12.03;8.60;;;;;;;;;;5087192;28;20669;-83
2023/03/13 08:41:18;;;;;;;12.13;8.63;;;;;;;;;;5087392;28;20184;-83
2023/03/13 08:43:45;;;;;;;14.40;8.83;;;;;;;;;;5087199;28;20245;-83
2023/03/13 08:46:11;;;;;;;15.63;8.40;;;;;;;;;;5085132;28;20190;-83
2023/03/13 08:48:38;;;;;;;15.33;9.10;;;;;;;;;;5102775;28;20172;-82
2023/03/13 08:51:06;;;;;;;15.43;8.77;;;;;;;;;;5084861;28;20214;-82
2023/03/13 08:53:33;;;;;;;13.00;8.27;;;;;;;;;;5086239;28;20278;-82
2023/03/13 08:55:59;;;;;;;17.20;8.60;;;;;;;;;;5084502;28;20278;-83
2023/03/13 08:58:26;;;;;;;11.97;8.10;;;;;;;;;;5085870;28;20172;-82
2023/03/13 09:00:52;;;;;;;14.47;8.33;;;;;;;;;;5087939;28;20176;-83
2023/03/13 09:03:18;;;;;;;15.10;8.23;;;;;;;;;;5107868;28;20176;-82
2023/03/13 09:05:46;;;;;;;15.03;8.00;;;;;;;;;;5084309;28;20637;-82
2023/03/13 09:08:13;;;;;;;12.33;7.47;;;;;;;;;;5101430;28;20192;-82
2023/03/13 09:10:39;;;;;;;15.77;8.13;;;;;;;;;;5084049;28;20207;-82
2023/03/13 09:13:06;;;;;;;11.70;7.93;;;;;;;;;;5087079;28;20237;-82
2023/03/13 09:15:32;;;;;;;15.07;8.03;;;;;;;;;;5084328;28;20661;-82
2023/03/13 09:17:58;;;;;;;14.13;8.13;;;;;;;;;;5083090;28;20660;-82
2023/03/13 09:20:24;;;;;;;10.57;7.27;;;;;;;;;;5086522;28;20274;-82
2023/03/13 09:22:50;;;;;;;10.80;7.80;;;;;;;;;;5085886;28;20270;-82
2023/03/13 09:25:16;;;;;;;18.43;7.87;;;;;;;;;;5084977;28;20270;-83
2023/03/13 09:27:42;;;;;;;13.77;7.37;;;;;;;;;;5087020;28;20180;-82
2023/03/13 09:30:08;;;;;;;10.73;6.93;;;;;;;;;;5101630;28;20665;-82
2023/03/13 09:32:34;;;;;;;12.70;7.13;;;;;;;;;;5082089;28;20653;-82
2023/03/13 09:35:00;;;;;;;12.67;8.07;;;;;;;;;;5087153;28;20436;-82
2023/03/13 09:37:26;;;;;;;11.93;7.17;;;;;;;;;;5087313;28;20168;-82
2023/03/13 09:39:52;;;;;;;13.43;7.37;;;;;;;;;;5088663;28;20195;-82
2023/03/13 09:42:23;;;;;;;11.80;6.80;;;;;;;;;;5082309;28;20638;-83
2023/03/13 09:44:54;;;;;;;10.77;6.70;;;;;;;;;;5085524;28;20184;-81
2023/03/13 09:47:20;;;;;;;12.60;6.07;;;;;;;;;;5085345;28;20198;-82
2023/03/13 09:49:50;;;;;;;10.43;6.27;;;;;;;;;;5099067;28;20230;-82
2023/03/13 09:52:16;;;;;;;11.47;6.73;;;;;;;;;;5083688;28;20239;-82
2023/03/13 09:54:57;;;;;;;14.93;6.33;;;;;;;;;;5084534;28;20184;-83
2023/03/13 09:57:28;;;;;;;17.30;6.83;;;;;;;;;;5081697;28;20214;-82
2023/03/13 10:00:00;;;;;;;10.80;6.00;;;;;;;;;;5101804;28;20638;-82
2023/03/13 10:02:29;;;;;;;11.33;6.40;;;;;;;;;;5079668;28;20597;-82
2023/03/13 10:04:59;;;;;;;14.63;6.40;;;;;;;;;;5081863;28;20543;-82
2023/03/13 10:07:25;;;;;;;12.97;6.60;;;;;;;;;;5084275;28;20184;-83
2023/03/13 10:09:52;;;;;;;12.43;6.13;;;;;;;;;;5087208;28;20176;-82
2023/03/13 10:12:27;;;;;;;12.60;6.33;;;;;;;;;;5083703;28;20207;-83
2023/03/13 10:15:05;;;;;;;13.37;6.10;;;;;;;;;;5083300;28;20188;-82
2023/03/13 10:17:33;;;;;;;16.23;6.17;;;;;;;;;;5100609;28;20689;-82
2023/03/13 10:20:07;;;;;;;16.47;6.30;;;;;;;;;;5085058;28;20211;-82
2023/03/13 10:22:33;;;;;;;12.43;6.33;;;;;;;;;;5081796;28;20657;-84
2023/03/13 10:25:01;;;;;;;15.13;6.00;;;;;;;;;;5100454;28;20592;-83
2023/03/13 10:27:27;;;;;;;14.00;6.27;;;;;;;;;;5087266;28;20187;-82
2023/03/13 10:29:53;;;;;;;11.50;5.97;;;;;;;;;;5100957;28;20255;-82
2023/03/13 10:32:19;;;;;;;13.13;6.33;;;;;;;;;;5083455;28;20641;-82
2023/03/13 10:34:49;;;;;;;18.57;6.97;;;;;;;;;;5100588;28;20195;-82
2023/03/13 10:37:16;;;;;;;13.13;6.50;;;;;;;;;;5103911;28;20180;-82
2023/03/13 10:39:42;;;;;;;12.10;6.60;;;;;;;;;;5086273;28;20237;-82
2023/03/13 10:42:10;;;;;;;13.23;6.70;;;;;;;;;;5086589;28;20188;-82
2023/03/13 10:44:36;;;;;;;17.00;6.57;;;;;;;;;;5087513;28;20538;-82
2023/03/13 10:47:03;;;;;;;13.37;6.10;;;;;;;;;;5086900;28;20195;-83
2023/03/13 10:49:30;;;;;;;13.33;5.80;;;;;;;;;;5102507;28;20238;-83
2023/03/13 10:52:02;;;;;;;13.73;6.37;;;;;;;;;;5087381;28;20223;-82
2023/03/13 10:54:36;;;;;;;11.60;5.63;;;;;;;;;;5103414;28;20281;-82
2023/03/13 10:57:25;;;;;;;15.53;5.90;;;;;;;;;;5086097;28;20206;-83
2023/03/13 10:59:52;;;;;;;12.80;5.30;;;;;;;;;;5087147;28;20512;-83
2023/03/13 11:02:35;;;;;;;15.00;6.13;;;;;;;;;;5083685;28;20211;-82
2023/03/13 11:05:21;;;;;;;14.67;5.47;;;;;;;;;;5104120;28;20183;-83
2023/03/13 11:07:47;;;;;;;8.73;4.67;;;;;;;;;;5019765;28;20272;-82
2023/03/13 11:10:35;;;;;;;17.13;5.97;;;;;;;;;;5020434;28;20281;-83
2023/03/13 11:13:02;;;;;;;13.40;5.70;;;;;;;;;;5022376;28;20191;-82
2023/03/13 11:15:28;;;;;;;15.53;5.87;;;;;;;;;;5000757;28;20602;-82
2023/03/13 11:18:18;;;;;;;11.30;5.40;;;;;;;;;;5002032;28;20229;-82
2023/03/13 11:20:45;;;;;;;15.50;5.57;;;;;;;;;;5018074;28;21404;-82
2023/03/13 11:23:22;;;;;;;11.10;5.20;;;;;;;;;;5019239;28;20198;-82
2023/03/13 11:26:05;;;;;;;11.57;5.63;;;;;;;;;;5002413;28;20194;-82
2023/03/13 11:29:03;;;;;;;13.60;5.63;;;;;;;;;;5015554;28;20274;-82
2023/03/13 11:31:31;;;;;;;12.60;5.90;;;;;;;;;;4960977;28;20212;-82
2023/03/13 11:34:16;;;;;;;13.83;5.63;;;;;;;;;;4959949;28;20251;-82
2023/03/13 11:36:51;;;;;;;13.90;5.50;;;;;;;;;;4957237;28;20216;-81
2023/03/13 11:39:17;;;;;;;13.73;6.17;;;;;;;;;;4958386;28;20290;-82
2023/03/13 11:42:07;;;;;;;15.43;6.27;;;;;;;;;;4959010;28;20204;-82
2023/03/13 11:44:36;;;;;;;13.87;6.03;;;;;;;;;;4988279;28;20564;-82
2023/03/13 11:47:12;;;;;;;14.40;5.93;;;;;;;;;;5017573;28;20766;-82
2023/03/13 11:49:47;;;;;;;14.13;6.07;;;;;;;;;;5020484;28;20190;-82
2023/03/13 11:52:43;;;;;;;10.47;5.47;;;;;;;;;;5037732;28;20212;-82
2023/03/13 11:55:17;;;;;;;14.37;6.00;;;;;;;;;;4971345;28;20195;-82
2023/03/13 11:57:58;;;;;;;14.03;5.87;;;;;;;;;;4972029;28;20192;-82
2023/03/13 12:00:43;;;;;;;12.40;5.90;;;;;;;;;;4966597;28;20204;-81
2023/03/13 12:03:20;;;;;;;17.33;5.50;;;;;;;;;;4967259;28;20279;-82
2023/03/13 12:05:53;;;;;;;14.10;6.03;;;;;;;;;;4968754;28;20211;-82
2023/03/13 12:08:38;;;;;;;14.13;6.10;;;;;;;;;;5029066;28;20192;-82
2023/03/13 12:11:17;;;;;;;13.70;5.73;;;;;;;;;;5011461;28;20206;-83
2023/03/13 12:13:51;;;;;;;14.33;5.87;;;;;;;;;;5027107;28;20356;-82
2023/03/13 12:16:23;;;;;;;11.63;5.50;;;;;;;;;;5014058;28;20401;-83
2023/03/13 12:18:50;;;;;;;11.00;5.30;;;;;;;;;;5033180;28;20222;-83
2023/03/13 12:21:31;;;;;;;14.57;6.40;;;;;;;;;;5028232;28;20676;-83
2023/03/13 12:24:03;;;;;;;13.43;6.10;;;;;;;;;;5026166;28;20186;-83
2023/03/13 12:26:42;;;;;;;13.87;5.37;;;;;;;;;;5010708;28;20181;-82
2023/03/13 12:29:14;;;;;;;13.63;5.63;;;;;;;;;;5023486;28;20186;-83
2023/03/13 12:31:54;;;;;;;16.43;5.27;;;;;;;;;;5050294;28;20681;-83
2023/03/13 12:34:34;;;;;;;15.43;6.07;;;;;;;;;;5086933;28;20191;-83
2023/03/13 12:37:09;;;;;;;12.53;5.20;;;;;;;;;;5087732;28;20182;-82
2023/03/13 12:39:46;;;;;;;12.80;5.87;;;;;;;;;;5083201;28;20298;-82
2023/03/13 12:42:12;;;;;;;15.40;6.43;;;;;;;;;;5100586;28;20195;-83
2023/03/13 12:44:39;;;;;;;14.13;5.93;;;;;;;;;;5103068;28;20183;-82
2023/03/13 12:47:28;;;;;;;15.03;6.30;;;;;;;;;;5083295;28;20188;-83
2023/03/13 12:50:23;;;;;;;14.73;5.60;;;;;;;;;;5085763;28;20271;-82
2023/03/13 12:52:52;;;;;;;12.27;5.53;;;;;;;;;;5087613;28;20200;-82
2023/03/13 12:55:27;;;;;;;17.20;6.17;;;;;;;;;;5097710;28;20235;-82
2023/03/13 12:58:07;;;;;;;15.40;6.53;;;;;;;;;;5100622;27;20194;-82
2023/03/13 13:00:35;;;;;;;16.43;5.97;;;;;;;;;;5082937;28;20188;-81
2023/03/13 13:03:05;;;;;;;17.53;6.53;;;;;;;;;;5083814;28;20184;-81
2023/03/13 13:05:31;;;;;;;18.17;6.43;;;;;;;;;;5083828;28;20208;-82
2023/03/13 13:07:58;;;;;;;12.57;6.00;;;;;;;;;;5105021;28;20235;-81
2023/03/13 13:10:25;;;;;;;20.47;6.87;;;;;;;;;;5087260;28;20175;-81
2023/03/13 13:13:10;;;;;;;16.63;6.63;;;;;;;;;;5082764;28;20730;-82
2023/03/13 13:15:36;;;;;;;13.43;6.27;;;;;;;;;;5082929;28;20633;-82
2023/03/13 13:18:15;;;;;;;15.80;6.00;;;;;;;;;;5100608;28;20215;-81
2023/03/13 13:20:47;;;;;;;13.70;6.13;;;;;;;;;;5081760;28;20188;-82
2023/03/13 13:23:32;;;;;;;16.97;6.90;;;;;;;;;;5100311;28;20198;-82
2023/03/13 13:26:17;;;;;;;18.27;6.97;;;;;;;;;;5081173;28;20180;-81
2023/03/13 13:28:43;;;;;;;20.73;6.90;;;;;;;;;;5081751;28;20176;-81
2023/03/13 13:31:28;;;;;;;16.70;7.07;;;;;;;;;;5104699;28;20227;-81
2023/03/13 13:33:54;;;;;;;15.57;7.53;;;;;;;;;;5100795;28;20176;-81
2023/03/13 13:36:20;;;;;;;21.23;7.17;;;;;;;;;;5082359;28;20656;-81
2023/03/13 13:38:47;;;;;;;14.03;5.97;;;;;;;;;;5082633;28;20188;-80
2023/03/13 13:41:13;;;;;;;15.93;6.63;;;;;;;;;;5085879;28;20227;-81
2023/03/13 13:43:39;;;;;;;22.97;7.17;;;;;;;;;;5085659;28;20652;-82
2023/03/13 13:46:16;;;;;;;17.73;6.63;;;;;;;;;;5081397;28;20267;-82
2023/03/13 13:48:43;;;;;;;16.10;6.80;;;;;;;;;;5099454;28;20187;-81
2023/03/13 13:51:17;;;;;;;14.50;6.27;;;;;;;;;;5083064;28;20239;-81
2023/03/13 13:53:49;;;;;;;16.20;6.67;;;;;;;;;;5083322;28;20683;-82
2023/03/13 13:56:27;;;;;;;15.83;6.23;;;;;;;;;;5084377;28;20251;-82
2023/03/13 13:59:12;;;;;;;16.60;5.90;;;;;;;;;;5081132;28;20168;-81
2023/03/13 14:01:39;;;;;;;17.10;5.40;;;;;;;;;;5101922;28;20187;-81
2023/03/13 14:04:19;;;;;;;14.33;5.03;;;;;;;;;;5102077;28;20179;-82
2023/03/13 14:06:48;;;;;;;13.00;5.33;;;;;;;;;;5101064;28;20180;-82
2023/03/13 14:09:19;;;;;;;14.47;4.90;;;;;;;;;;5103292;28;20628;-82
2023/03/13 14:11:46;;;;;;;12.20;5.10;;;;;;;;;;5088216;28;20207;-83
2023/03/13 14:14:16;;;;;;;14.13;5.17;;;;;;;;;;5086701;28;20207;-83
2023/03/13 14:16:46;;;;;;;16.17;5.43;;;;;;;;;;5088250;28;21019;-82
2023/03/13 14:19:28;;;;;;;15.83;5.27;;;;;;;;;;5091808;28;20227;-83
2023/03/13 14:21:58;;;;;;;15.17;5.10;;;;;;;;;;5106322;28;20196;-83
2023/03/13 14:24:24;;;;;;;13.10;5.50;;;;;;;;;;5089389;28;20641;-82
2023/03/13 14:26:50;;;;;;;11.77;4.30;;;;;;;;;;5088373;28;20179;-83
2023/03/13 14:29:17;;;;;;;11.00;4.67;;;;;;;;;;5089528;28;20752;-82
2023/03/13 14:31:49;;;;;;;14.17;5.37;;;;;;;;;;5087841;28;20246;-82
2023/03/13 14:34:15;;;;;;;14.03;5.30;;;;;;;;;;5088620;28;20184;-82
2023/03/13 14:37:01;;;;;;;12.10;5.53;;;;;;;;;;5084481;28;20260;-83